createdAt,value
2019-03-21T00:00:43.102Z,1.10
2019-03-21T00:03:11.451Z,1.30
2019-03-21T00:05:39.818Z,1.23
2019-03-21T00:08:09.048Z,1.40
2019-03-21T00:10:56.200Z,1.33
2019-03-21T00:13:24.541Z,1.40
2019-03-21T00:15:54.601Z,1.30
2019-03-21T00:18:22.926Z,1.50
2019-03-21T00:20:51.279Z,1.43
2019-03-21T00:23:19.607Z,1.40
2019-03-21T00:25:47.914Z,1.27
2019-03-21T00:28:16.307Z,1.10
2019-03-21T00:30:44.614Z,1.17
2019-03-21T00:33:12.933Z,1.20
2019-03-21T00:35:41.645Z,1.63
2019-03-21T00:38:10.037Z,1.20
2019-03-21T00:40:39.540Z,1.40
2019-03-21T00:43:08.723Z,1.50
2019-03-21T00:45:37.039Z,1.40
2019-03-21T00:48:06.094Z,1.43
2019-03-21T00:50:34.562Z,1.30
2019-03-21T00:53:02.895Z,1.23
2019-03-21T00:55:31.833Z,1.33
2019-03-21T00:58:00.147Z,1.60
2019-03-21T01:00:29.718Z,1.90
2019-03-21T01:02:58.134Z,1.40
2019-03-21T01:05:26.438Z,1.03
2019-03-21T01:07:54.771Z,1.30
2019-03-21T01:10:23.679Z,1.50
2019-03-21T01:12:51.984Z,1.30
2019-03-21T01:15:20.355Z,1.60
2019-03-21T01:17:48.702Z,1.30
2019-03-21T01:20:17.087Z,1.80
2019-03-21T01:22:45.407Z,1.40
2019-03-21T01:25:16.022Z,1.53
2019-03-21T01:27:44.314Z,1.70
2019-03-21T01:30:13.501Z,1.60
2019-03-21T01:32:41.834Z,1.57
2019-03-21T01:35:10.155Z,1.37
2019-03-21T01:37:38.518Z,1.60
2019-03-21T01:40:08.221Z,1.47
2019-03-21T01:42:36.547Z,1.70
2019-03-21T01:45:05.710Z,1.50
2019-03-21T01:47:34.054Z,1.33
2019-03-21T01:50:02.389Z,1.77
2019-03-21T01:52:30.758Z,1.37
2019-03-21T01:54:59.105Z,1.50
2019-03-21T01:57:27.468Z,1.43
2019-03-21T01:59:55.779Z,1.40
2019-03-21T02:02:24.131Z,1.60
2019-03-21T02:04:52.480Z,1.43
2019-03-21T02:07:20.827Z,1.53
2019-03-21T02:09:49.132Z,1.70
2019-03-21T02:12:17.494Z,1.40
2019-03-21T02:14:51.967Z,1.93
2019-03-21T02:17:15.806Z,2.07
2019-03-21T02:19:44.157Z,1.70
2019-03-21T02:22:12.522Z,1.90
2019-03-21T02:24:40.863Z,1.30
2019-03-21T02:27:09.162Z,1.70
2019-03-21T02:29:37.515Z,1.57
2019-03-21T02:32:05.864Z,1.53
2019-03-21T02:34:34.242Z,1.43
2019-03-21T02:37:02.464Z,1.50
2019-03-21T02:39:30.765Z,1.90
2019-03-21T02:41:59.117Z,1.90
2019-03-21T02:44:27.468Z,1.80
2019-03-21T02:46:55.717Z,1.60
2019-03-21T02:49:24.086Z,1.67
2019-03-21T02:51:52.429Z,1.90
2019-03-21T02:54:20.679Z,1.77
2019-03-21T02:56:49.068Z,1.67
2019-03-21T02:59:17.401Z,1.70
2019-03-21T03:01:45.711Z,2.20
2019-03-21T03:04:14.004Z,1.70
2019-03-21T03:06:42.396Z,1.67
2019-03-21T03:09:10.641Z,2.03
2019-03-21T03:11:39.067Z,1.90
2019-03-21T03:14:07.335Z,2.10
2019-03-21T03:16:35.667Z,1.80
2019-03-21T03:19:04.057Z,1.80
2019-03-21T03:21:32.386Z,1.83
2019-03-21T03:24:00.562Z,2.00
2019-03-21T03:26:28.850Z,2.00
2019-03-21T03:28:57.183Z,2.07
2019-03-21T03:31:25.562Z,1.97
2019-03-21T03:33:53.843Z,1.90
2019-03-21T03:36:22.193Z,2.27
2019-03-21T03:38:50.480Z,2.20
2019-03-21T03:41:18.828Z,2.07
2019-03-21T03:43:47.117Z,1.87
2019-03-21T03:46:15.400Z,2.63
2019-03-21T03:48:43.738Z,2.47
2019-03-21T03:51:12.010Z,1.90
2019-03-21T03:53:42.427Z,2.30
2019-03-21T03:56:10.333Z,2.50
2019-03-21T03:58:39.333Z,2.10
2019-03-21T04:01:07.709Z,2.50
2019-03-21T04:03:36.053Z,3.03
2019-03-21T04:06:04.355Z,2.03
2019-03-21T04:08:32.640Z,2.40
2019-03-21T04:11:00.947Z,2.30
2019-03-21T04:13:29.221Z,3.53
2019-03-21T04:15:57.534Z,2.53
2019-03-21T04:18:25.755Z,2.70
2019-03-21T04:20:54.273Z,2.30
2019-03-21T04:23:22.623Z,1.93
2019-03-21T04:25:52.632Z,2.43
2019-03-21T04:28:20.995Z,2.27
2019-03-21T04:30:49.605Z,2.50
2019-03-21T04:33:17.888Z,2.77
2019-03-21T04:35:46.196Z,2.90
2019-03-21T04:38:14.502Z,2.50
2019-03-21T04:40:42.787Z,2.43
2019-03-21T04:43:11.056Z,2.67
2019-03-21T04:45:39.346Z,2.43
2019-03-21T04:48:07.646Z,2.53
2019-03-21T04:50:35.965Z,2.43
2019-03-21T04:53:04.360Z,2.63
2019-03-21T04:55:32.579Z,2.10
2019-03-21T04:58:00.884Z,2.27
2019-03-21T05:00:29.859Z,2.60
2019-03-21T05:02:58.765Z,2.30
2019-03-21T05:05:27.095Z,2.47
2019-03-21T05:07:55.409Z,2.70
2019-03-21T05:10:23.700Z,2.63
2019-03-21T05:12:51.984Z,2.40
2019-03-21T05:15:23.952Z,2.53
2019-03-21T05:17:52.669Z,2.70
2019-03-21T05:20:22.310Z,3.50
2019-03-21T05:22:50.626Z,3.23
2019-03-21T05:25:18.973Z,3.23
2019-03-21T05:27:47.325Z,2.60
2019-03-21T05:30:16.948Z,2.20
2019-03-21T05:32:45.259Z,2.73
2019-03-21T05:35:13.521Z,2.53
2019-03-21T05:37:41.752Z,2.53
2019-03-21T05:40:10.884Z,2.57
2019-03-21T05:42:39.217Z,2.80
2019-03-21T05:45:08.216Z,3.20
2019-03-21T05:47:36.480Z,2.97
2019-03-21T05:50:04.929Z,2.83
2019-03-21T05:52:33.204Z,3.20
2019-03-21T05:55:01.543Z,2.80
2019-03-21T05:57:29.788Z,2.23
2019-03-21T05:59:58.080Z,2.80
2019-03-21T06:02:26.442Z,2.47
2019-03-21T06:04:54.785Z,2.83
2019-03-21T06:07:25.343Z,3.47
2019-03-21T06:09:53.642Z,3.03
2019-03-21T06:12:21.946Z,3.37
2019-03-21T06:14:52.040Z,3.30
2019-03-21T06:17:20.293Z,3.03
2019-03-21T06:20:07.426Z,2.87
2019-03-21T06:22:41.749Z,2.50
2019-03-21T06:25:19.795Z,3.40
2019-03-21T06:27:48.149Z,3.17
2019-03-21T06:30:16.436Z,3.40
2019-03-21T06:32:44.775Z,3.10
2019-03-21T06:35:20.163Z,3.27
2019-03-21T06:37:48.474Z,3.20
2019-03-21T06:40:16.827Z,3.30
2019-03-21T06:42:45.036Z,3.60
2019-03-21T06:45:13.332Z,3.80
2019-03-21T06:47:41.660Z,3.83
2019-03-21T06:50:09.914Z,3.60
2019-03-21T06:52:38.147Z,2.93
2019-03-21T06:55:06.553Z,3.10
2019-03-21T06:57:34.875Z,4.30
2019-03-21T07:00:03.060Z,3.03
2019-03-21T07:02:31.390Z,3.73
2019-03-21T07:05:00.370Z,3.30
2019-03-21T07:07:28.688Z,3.77
2019-03-21T07:09:57.132Z,3.97
2019-03-21T07:12:25.517Z,3.43
2019-03-21T07:14:53.843Z,3.23
2019-03-21T07:17:23.546Z,2.90
2019-03-21T07:19:51.805Z,3.37
2019-03-21T07:22:20.107Z,3.77
2019-03-21T07:24:48.401Z,3.50
2019-03-21T07:27:16.677Z,3.57
2019-03-21T07:29:44.864Z,3.73
2019-03-21T07:32:13.130Z,3.70
2019-03-21T07:34:41.482Z,3.87
2019-03-21T07:37:09.832Z,3.17
2019-03-21T07:39:38.136Z,3.60
2019-03-21T07:42:06.541Z,3.30
2019-03-21T07:44:34.836Z,3.33
2019-03-21T07:47:12.320Z,3.53
2019-03-21T07:49:33.263Z,4.20
2019-03-21T07:52:01.555Z,3.97
2019-03-21T07:54:29.970Z,3.43
2019-03-21T07:56:58.475Z,3.87
2019-03-21T07:59:26.759Z,3.63
2019-03-21T08:01:55.061Z,2.97
2019-03-21T08:04:23.379Z,3.43
2019-03-21T08:06:51.680Z,3.33
2019-03-21T08:09:19.982Z,3.67
2019-03-21T08:11:48.217Z,3.50
2019-03-21T08:14:16.539Z,4.40
2019-03-21T08:16:44.857Z,3.47
2019-03-21T08:19:13.050Z,3.00
2019-03-21T08:21:41.329Z,3.10
2019-03-21T08:24:09.568Z,3.13
2019-03-21T08:26:37.884Z,3.00
2019-03-21T08:29:06.121Z,3.27
2019-03-21T08:31:34.392Z,3.20
2019-03-21T08:34:02.683Z,3.73
2019-03-21T08:36:30.991Z,3.30
2019-03-21T08:38:59.292Z,3.00
2019-03-21T08:41:27.558Z,3.73
2019-03-21T08:43:55.853Z,3.07
2019-03-21T08:46:24.171Z,3.17
2019-03-21T08:48:52.495Z,3.40
2019-03-21T08:51:20.778Z,3.20
2019-03-21T08:53:49.250Z,3.20
2019-03-21T08:56:17.554Z,3.40
2019-03-21T08:58:45.857Z,2.90
2019-03-21T09:01:14.152Z,2.67
2019-03-21T09:03:42.427Z,3.07
2019-03-21T09:06:10.725Z,3.13
2019-03-21T09:08:38.960Z,3.10
2019-03-21T09:11:07.330Z,2.50
2019-03-21T09:13:35.640Z,2.50
2019-03-21T09:16:04.226Z,2.97
2019-03-21T09:18:32.538Z,2.73
2019-03-21T09:21:00.878Z,3.03
2019-03-21T09:23:29.201Z,2.70
2019-03-21T09:25:57.457Z,2.97
2019-03-21T09:28:25.699Z,3.10
2019-03-21T09:30:56.435Z,2.43
2019-03-21T09:33:23.950Z,2.80
2019-03-21T09:35:52.261Z,2.40
2019-03-21T09:38:20.581Z,2.70
2019-03-21T09:40:48.893Z,3.07
2019-03-21T09:43:17.355Z,2.57
2019-03-21T09:45:45.617Z,2.23
2019-03-21T09:48:13.872Z,2.67
2019-03-21T09:50:42.151Z,2.60
2019-03-21T09:53:10.583Z,2.87
2019-03-21T09:55:38.945Z,2.87
2019-03-21T09:58:07.188Z,2.60
2019-03-21T10:00:35.800Z,3.10
2019-03-21T10:03:04.713Z,2.60
2019-03-21T10:05:32.968Z,2.60
2019-03-21T10:08:01.406Z,2.40
2019-03-21T10:10:30.391Z,2.30
2019-03-21T10:12:58.810Z,2.70
2019-03-21T10:15:27.115Z,2.37
2019-03-21T10:17:55.388Z,2.40
2019-03-21T10:20:23.702Z,2.67
2019-03-21T10:22:52.061Z,2.20
2019-03-21T10:25:20.344Z,2.30
2019-03-21T10:27:48.568Z,2.23
2019-03-21T10:30:20.189Z,2.40
2019-03-21T10:32:48.501Z,2.30
2019-03-21T10:35:16.705Z,2.47
2019-03-21T10:37:44.914Z,2.37
2019-03-21T10:40:13.226Z,2.50
2019-03-21T10:42:41.502Z,2.53
2019-03-21T10:45:09.892Z,2.60
2019-03-21T10:47:38.156Z,2.57
2019-03-21T10:50:06.674Z,2.60
2019-03-21T10:52:34.990Z,2.40
2019-03-21T10:55:03.293Z,2.00
2019-03-21T10:57:31.948Z,2.40
2019-03-21T11:00:01.827Z,2.40
2019-03-21T11:02:30.141Z,2.20
2019-03-21T11:04:58.448Z,2.03
2019-03-21T11:07:26.764Z,1.93
2019-03-21T11:09:55.059Z,2.30
2019-03-21T11:12:23.708Z,2.80
2019-03-21T11:14:51.996Z,2.47
2019-03-21T11:17:20.265Z,2.10
2019-03-21T11:19:48.575Z,1.90
2019-03-21T11:22:16.862Z,2.60
2019-03-21T11:24:45.272Z,2.33
2019-03-21T11:27:13.612Z,2.23
2019-03-21T11:29:41.900Z,2.00
2019-03-21T11:32:10.183Z,2.20
2019-03-21T11:34:38.500Z,2.60
2019-03-21T11:37:06.889Z,2.50
2019-03-21T11:39:35.241Z,2.20
2019-03-21T11:42:03.609Z,2.60
2019-03-21T11:44:31.988Z,2.53
2019-03-21T11:47:00.253Z,2.70
2019-03-21T11:49:28.460Z,2.60
2019-03-21T11:51:56.795Z,2.23
2019-03-21T11:54:25.110Z,2.03
2019-03-21T11:56:53.398Z,1.90
2019-03-21T11:59:21.783Z,2.00
2019-03-21T12:01:50.215Z,2.40
2019-03-21T12:04:18.520Z,2.10
2019-03-21T12:06:46.860Z,2.30
2019-03-21T12:09:15.084Z,2.00
2019-03-21T12:11:43.449Z,2.00
2019-03-21T12:14:12.201Z,2.10
2019-03-21T12:16:40.669Z,2.17
2019-03-21T12:19:09.034Z,2.20
2019-03-21T12:21:37.354Z,2.17
2019-03-21T12:24:05.657Z,1.93
2019-03-21T12:26:34.012Z,2.17
2019-03-21T12:29:02.266Z,2.20
2019-03-21T12:31:30.579Z,2.00
2019-03-21T12:33:59.350Z,2.33
2019-03-21T12:36:27.765Z,2.07
2019-03-21T12:38:56.086Z,2.40
2019-03-21T12:41:24.389Z,2.70
2019-03-21T12:43:52.848Z,2.70
2019-03-21T12:46:21.256Z,2.40
2019-03-21T12:48:49.515Z,2.90
2019-03-21T12:51:17.837Z,2.93
2019-03-21T12:53:46.281Z,2.60
2019-03-21T12:56:14.597Z,2.60
2019-03-21T12:58:42.996Z,2.80
2019-03-21T13:01:11.246Z,2.63
2019-03-21T13:03:39.698Z,2.50
2019-03-21T13:06:08.115Z,2.90
2019-03-21T13:08:36.456Z,3.07
2019-03-21T13:11:04.801Z,2.60
2019-03-21T13:13:33.258Z,2.60
2019-03-21T13:16:01.585Z,2.33
2019-03-21T13:18:30.065Z,2.60
2019-03-21T13:20:58.373Z,2.33
2019-03-21T13:23:26.628Z,2.53
2019-03-21T13:25:55.149Z,2.67
2019-03-21T13:28:23.464Z,2.50
2019-03-21T13:30:51.746Z,2.43
2019-03-21T13:33:20.033Z,2.70
2019-03-21T13:35:48.350Z,2.60
2019-03-21T13:38:16.720Z,2.60
2019-03-21T13:40:45.355Z,2.60
2019-03-21T13:43:13.689Z,2.60
2019-03-21T13:45:42.004Z,2.33
2019-03-21T13:48:10.593Z,2.90
2019-03-21T13:50:38.976Z,2.30
2019-03-21T13:53:18.089Z,2.50
2019-03-21T13:55:37.503Z,2.50
2019-03-21T13:58:05.862Z,2.33
2019-03-21T14:00:34.156Z,2.60
2019-03-21T14:03:02.478Z,2.20
2019-03-21T14:05:30.797Z,2.30
2019-03-21T14:07:59.290Z,2.23
2019-03-21T14:10:27.519Z,2.10
2019-03-21T14:12:55.821Z,2.30
2019-03-21T14:15:24.357Z,2.20
2019-03-21T14:17:52.590Z,1.80
2019-03-21T14:20:20.884Z,2.00
2019-03-21T14:22:49.177Z,2.10
2019-03-21T14:25:17.657Z,2.13
2019-03-21T14:27:45.971Z,2.27
2019-03-21T14:30:15.162Z,2.07
2019-03-21T14:32:44.933Z,2.10
2019-03-21T14:35:14.076Z,2.20
2019-03-21T14:37:42.385Z,2.07
2019-03-21T14:40:11.472Z,2.10
2019-03-21T14:42:39.870Z,2.17
2019-03-21T14:45:08.860Z,2.10
2019-03-21T14:47:37.249Z,2.07
2019-03-21T14:50:08.889Z,1.67
2019-03-21T14:52:37.193Z,2.10
2019-03-21T14:55:06.300Z,2.03
2019-03-21T14:57:34.550Z,2.00
2019-03-21T15:00:02.789Z,2.00
2019-03-21T15:02:31.076Z,2.10
2019-03-21T15:04:59.385Z,2.33
2019-03-21T15:07:27.724Z,2.00
2019-03-21T15:09:55.989Z,1.93
2019-03-21T15:12:24.221Z,2.20
2019-03-21T15:14:52.524Z,2.10
2019-03-21T15:17:20.826Z,2.10
2019-03-21T15:19:49.216Z,1.90
2019-03-21T15:22:19.006Z,2.07
2019-03-21T15:24:47.324Z,2.03
2019-03-21T15:27:15.765Z,1.90
2019-03-21T15:29:44.025Z,1.70
2019-03-21T15:32:12.304Z,1.70
2019-03-21T15:34:40.738Z,1.87
2019-03-21T15:37:09.061Z,1.93
2019-03-21T15:39:37.310Z,2.00
2019-03-21T15:42:05.631Z,2.30
2019-03-21T15:44:33.925Z,2.00
2019-03-21T15:47:02.212Z,1.77
2019-03-21T15:49:30.503Z,2.07
2019-03-21T15:51:58.796Z,2.20
2019-03-21T15:54:27.099Z,2.00
2019-03-21T15:56:55.383Z,1.80
2019-03-21T15:59:23.917Z,2.07
2019-03-21T16:01:52.224Z,1.90
2019-03-21T16:04:20.509Z,1.90
2019-03-21T16:06:48.934Z,1.90
2019-03-21T16:09:17.157Z,1.80
2019-03-21T16:11:45.441Z,1.77
2019-03-21T16:14:13.746Z,1.80
2019-03-21T16:16:42.065Z,1.80
2019-03-21T16:19:10.425Z,2.00
2019-03-21T16:21:38.838Z,1.90
2019-03-21T16:24:07.140Z,1.90
2019-03-21T16:26:36.719Z,2.10
2019-03-21T16:29:05.325Z,2.23
2019-03-21T16:31:33.622Z,1.50
2019-03-21T16:34:01.873Z,1.90
2019-03-21T16:36:30.174Z,1.90
2019-03-21T16:38:58.478Z,2.13
2019-03-21T16:41:26.744Z,1.93
2019-03-21T16:43:55.093Z,2.00
2019-03-21T16:46:23.348Z,2.13
2019-03-21T16:48:51.697Z,2.03
2019-03-21T16:51:19.960Z,2.30
2019-03-21T16:53:48.281Z,1.90
2019-03-21T16:56:16.582Z,2.03
2019-03-21T16:58:44.853Z,2.47
2019-03-21T17:01:13.101Z,5.20
2019-03-21T17:03:41.306Z,2.50
2019-03-21T17:06:09.754Z,2.40
2019-03-21T17:08:38.156Z,2.40
2019-03-21T17:11:06.469Z,2.27
2019-03-21T17:13:34.765Z,2.67
2019-03-21T17:16:05.628Z,2.17
2019-03-21T17:18:33.003Z,2.23
2019-03-21T17:21:01.261Z,1.93
2019-03-21T17:23:29.559Z,2.40
2019-03-21T17:25:57.849Z,2.30
2019-03-21T17:28:26.202Z,2.30
2019-03-21T17:30:54.504Z,2.60
2019-03-21T17:33:22.764Z,2.17
2019-03-21T17:35:51.122Z,2.40
2019-03-21T17:38:19.413Z,2.43
2019-03-21T17:40:47.813Z,2.20
2019-03-21T17:43:16.019Z,2.60
2019-03-21T17:45:44.326Z,2.33
2019-03-21T17:48:12.611Z,2.73
2019-03-21T17:50:41.012Z,2.43
2019-03-21T17:53:09.418Z,2.83
2019-03-21T17:55:37.730Z,3.07
2019-03-21T17:58:06.143Z,2.33
2019-03-21T18:00:34.589Z,2.37
2019-03-21T18:03:02.921Z,2.60
2019-03-21T18:05:31.235Z,2.50
2019-03-21T18:07:59.507Z,2.40
2019-03-21T18:10:28.527Z,2.60
2019-03-21T18:12:56.974Z,2.50
2019-03-21T18:15:25.282Z,3.03
2019-03-21T18:17:53.556Z,2.70
2019-03-21T18:20:21.800Z,2.70
2019-03-21T18:22:50.236Z,2.70
2019-03-21T18:25:18.811Z,2.80
2019-03-21T18:27:47.165Z,2.77
2019-03-21T18:30:15.555Z,2.70
2019-03-21T18:32:43.906Z,2.53
2019-03-21T18:35:12.421Z,2.80
2019-03-21T18:37:40.677Z,2.73
2019-03-21T18:40:09.105Z,2.50
2019-03-21T18:42:37.395Z,2.43
2019-03-21T18:45:06.089Z,2.40
2019-03-21T18:47:34.302Z,2.10
2019-03-21T18:50:02.575Z,2.57
2019-03-21T18:52:30.896Z,2.40
2019-03-21T18:55:06.182Z,2.80
2019-03-21T18:57:30.073Z,2.50
2019-03-21T18:59:58.376Z,3.10
2019-03-21T19:02:26.730Z,2.07
2019-03-21T19:04:55.137Z,1.57
2019-03-21T19:07:23.382Z,1.10
2019-03-21T19:09:52.486Z,1.30
2019-03-21T19:12:20.843Z,1.00
2019-03-21T19:14:49.218Z,0.80
2019-03-21T19:17:17.419Z,0.80
2019-03-21T19:19:45.853Z,0.93
2019-03-21T19:22:14.206Z,1.73
2019-03-21T19:24:42.468Z,1.17
2019-03-21T19:27:10.789Z,0.80
2019-03-21T19:29:39.242Z,1.70
2019-03-21T19:32:07.667Z,3.70
2019-03-21T19:34:35.917Z,3.27
2019-03-21T19:37:04.280Z,1.23
2019-03-21T19:39:32.524Z,3.50
2019-03-21T19:42:00.822Z,1.33
2019-03-21T19:44:29.190Z,1.13
2019-03-21T19:46:57.514Z,1.07
2019-03-21T19:49:25.813Z,1.20
2019-03-21T19:51:54.153Z,0.60
2019-03-21T19:54:22.388Z,1.07
2019-03-21T19:56:50.821Z,0.70
2019-03-21T19:59:19.109Z,0.70
2019-03-21T20:01:47.397Z,0.80
2019-03-21T20:04:15.690Z,1.00
2019-03-21T20:06:44.015Z,0.90
2019-03-21T20:09:12.281Z,1.00
2019-03-21T20:11:40.665Z,1.23
2019-03-21T20:14:09.028Z,1.00
2019-03-21T20:16:37.369Z,0.90
2019-03-21T20:19:05.713Z,1.07
2019-03-21T20:21:34.046Z,0.80
2019-03-21T20:24:02.454Z,0.80
2019-03-21T20:26:30.778Z,0.77
2019-03-21T20:28:59.109Z,0.80
2019-03-21T20:31:27.481Z,0.90
2019-03-21T20:33:55.735Z,0.80
2019-03-21T20:36:24.025Z,1.10
2019-03-21T20:38:52.321Z,0.93
2019-03-21T20:41:20.641Z,1.10
2019-03-21T20:43:48.872Z,0.80
2019-03-21T20:46:17.149Z,0.90
2019-03-21T20:48:44.361Z,0.80
2019-03-21T20:51:12.630Z,0.93
2019-03-21T20:53:40.898Z,0.97
2019-03-21T20:56:09.262Z,1.00
2019-03-21T20:58:37.637Z,1.07
2019-03-21T21:01:05.954Z,1.13
2019-03-21T21:03:34.197Z,1.17
2019-03-21T21:06:02.469Z,1.10
2019-03-21T21:08:33.820Z,1.07
2019-03-21T21:11:02.177Z,1.00
2019-03-21T21:13:30.506Z,1.00
2019-03-21T21:15:58.880Z,0.87
2019-03-21T21:18:27.105Z,0.90
2019-03-21T21:20:55.401Z,1.00
2019-03-21T21:23:23.704Z,1.00
2019-03-21T21:25:51.935Z,1.20
2019-03-21T21:28:20.222Z,1.27
2019-03-21T21:30:48.494Z,1.10
2019-03-21T21:33:16.730Z,1.30
2019-03-21T21:35:45.049Z,1.60
2019-03-21T21:38:13.331Z,1.30
2019-03-21T21:40:41.636Z,0.93
2019-03-21T21:43:09.927Z,1.10
2019-03-21T21:45:38.263Z,1.00
2019-03-21T21:48:06.545Z,1.10
2019-03-21T21:50:34.899Z,0.80
2019-03-21T21:53:03.222Z,1.00
2019-03-21T21:55:31.481Z,1.00
2019-03-21T21:57:59.886Z,0.97
2019-03-21T22:00:28.163Z,1.00
2019-03-21T22:02:56.382Z,0.97
2019-03-21T22:05:24.678Z,1.13
2019-03-21T22:07:52.897Z,0.83
2019-03-21T22:10:21.202Z,0.93
2019-03-21T22:12:49.496Z,1.17
2019-03-21T22:15:17.782Z,1.10
2019-03-21T22:17:46.091Z,1.00
2019-03-21T22:20:15.536Z,1.07
2019-03-21T22:22:43.983Z,1.17
2019-03-21T22:25:12.391Z,0.83
2019-03-21T22:27:40.751Z,1.00
2019-03-21T22:30:12.589Z,0.90
2019-03-21T22:32:40.977Z,1.03
2019-03-21T22:35:09.438Z,1.00
2019-03-21T22:37:37.664Z,0.87
2019-03-21T22:40:06.200Z,0.97
2019-03-21T22:42:34.410Z,1.13
2019-03-21T22:45:02.717Z,0.90
2019-03-21T22:47:30.997Z,0.80
2019-03-21T22:49:59.272Z,0.90
2019-03-21T22:52:27.631Z,1.00
2019-03-21T22:54:55.812Z,1.17
2019-03-21T22:57:24.066Z,0.90
2019-03-21T22:59:52.325Z,0.90
2019-03-21T23:02:20.593Z,0.90
2019-03-21T23:04:48.781Z,0.90
2019-03-21T23:07:17.013Z,0.80
2019-03-21T23:09:45.389Z,1.07
2019-03-21T23:12:13.588Z,0.90
2019-03-21T23:14:42.078Z,0.90
2019-03-21T23:17:10.385Z,0.90
2019-03-21T23:19:38.733Z,1.10
2019-03-21T23:22:06.951Z,1.00
2019-03-21T23:24:35.256Z,0.90
2019-03-21T23:27:03.554Z,0.97
2019-03-21T23:29:31.834Z,1.00
2019-03-21T23:32:00.157Z,0.80
2019-03-21T23:34:28.429Z,0.73
2019-03-21T23:36:56.718Z,0.90
2019-03-21T23:39:24.985Z,1.00
2019-03-21T23:41:53.272Z,0.90
2019-03-21T23:44:21.603Z,1.00
2019-03-21T23:46:49.913Z,0.93
2019-03-21T23:49:18.239Z,1.13
2019-03-21T23:51:46.584Z,1.00
2019-03-21T23:54:14.973Z,0.80
2019-03-21T23:56:43.306Z,0.83
2019-03-21T23:59:11.696Z,0.80
